sensor_id;sensor_type;location;lat;lon;timestamp;pressure;altitude;pressure_sealevel;temperature;humidity
65553;BME280;72126;51.560;14.368;2023-12-20T00:01:04;99752.78;;;10.58;65.33
65553;BME280;72126;51.560;14.368;2023-12-20T00:03:29;99758.81;;;10.58;65.67
65553;BME280;72126;51.560;14.368;2023-12-20T00:05:55;99754.56;;;10.57;65.65
65553;BME280;72126;51.560;14.368;2023-12-20T00:08:20;99748.34;;;10.58;65.43
65553;BME280;72126;51.560;14.368;2023-12-20T00:10:45;99753.59;;;10.58;65.55
65553;BME280;72126;51.560;14.368;2023-12-20T00:13:11;99755.38;;;10.58;65.47
65553;BME280;72126;51.560;14.368;2023-12-20T00:15:36;99743.28;;;10.57;65.52
65553;BME280;72126;51.560;14.368;2023-12-20T00:18:02;99757.19;;;10.57;65.86
65553;BME280;72126;51.560;14.368;2023-12-20T00:20:28;99752.94;;;10.56;65.36
65553;BME280;72126;51.560;14.368;2023-12-20T00:22:56;99753.75;;;10.57;65.64
65553;BME280;72126;51.560;14.368;2023-12-20T00:25:21;99752.94;;;10.56;65.64
65553;BME280;72126;51.560;14.368;2023-12-20T00:27:46;99751.16;;;10.57;65.40
65553;BME280;72126;51.560;14.368;2023-12-20T00:30:12;99745.09;;;10.56;65.56
65553;BME280;72126;51.560;14.368;2023-12-20T00:32:38;99744.28;;;10.56;65.50
65553;BME280;72126;51.560;14.368;2023-12-20T00:35:03;99744.28;;;10.56;65.57
65553;BME280;72126;51.560;14.368;2023-12-20T00:37:28;99748.69;;;10.55;65.44
65553;BME280;72126;51.560;14.368;2023-12-20T00:39:53;99744.28;;;10.56;65.66
65553;BME280;72126;51.560;14.368;2023-12-20T00:42:19;99752.13;;;10.56;65.66
65553;BME280;72126;51.560;14.368;2023-12-20T00:44:44;99738.22;;;10.55;65.83
65553;BME280;72126;51.560;14.368;2023-12-20T00:47:09;99741.81;;;10.54;65.60
65553;BME280;72126;51.560;14.368;2023-12-20T00:49:34;99752.28;;;10.54;65.54
65553;BME280;72126;51.560;14.368;2023-12-20T00:51:59;99742.63;;;10.55;65.63
65553;BME280;72126;51.560;14.368;2023-12-20T00:54:24;99744.44;;;10.54;65.60
65553;BME280;72126;51.560;14.368;2023-12-20T00:56:50;99741.81;;;10.54;65.74
65553;BME280;72126;51.560;14.368;2023-12-20T00:59:16;99736.56;;;10.54;65.57
65553;BME280;72126;51.560;14.368;2023-12-20T01:01:41;99729.72;;;10.53;65.61
65553;BME280;72126;51.560;14.368;2023-12-20T01:04:07;99733.16;;;10.54;65.67
65553;BME280;72126;51.560;14.368;2023-12-20T01:06:32;99727.91;;;10.54;65.58
65553;BME280;72126;51.560;14.368;2023-12-20T01:08:57;99729.72;;;10.53;65.74
65553;BME280;72126;51.560;14.368;2023-12-20T01:11:22;99733.97;;;10.54;65.57
65553;BME280;72126;51.560;14.368;2023-12-20T01:13:47;99726.28;;;10.53;65.66
65553;BME280;72126;51.560;14.368;2023-12-20T01:16:13;99725.28;;;10.54;65.72
65553;BME280;72126;51.560;14.368;2023-12-20T01:18:38;99727.09;;;10.53;65.76
65553;BME280;72126;51.560;14.368;2023-12-20T01:21:03;99726.28;;;10.53;65.76
65553;BME280;72126;51.560;14.368;2023-12-20T01:23:29;99717.44;;;10.54;65.84
65553;BME280;72126;51.560;14.368;2023-12-20T01:25:54;99715.81;;;10.53;65.74
65553;BME280;72126;51.560;14.368;2023-12-20T01:28:19;99709.78;;;10.52;65.56
65553;BME280;72126;51.560;14.368;2023-12-20T01:30:45;99706.34;;;10.52;65.87
65553;BME280;72126;51.560;14.368;2023-12-20T01:33:10;99706.34;;;10.52;65.65
65553;BME280;72126;51.560;14.368;2023-12-20T01:35:35;99701.09;;;10.52;65.62
65553;BME280;72126;51.560;14.368;2023-12-20T01:38:01;99699.31;;;10.52;65.59
65553;BME280;72126;51.560;14.368;2023-12-20T01:40:26;99698.50;;;10.52;65.65
65553;BME280;72126;51.560;14.368;2023-12-20T01:43:01;99696.03;;;10.50;65.79
65553;BME280;72126;51.560;14.368;2023-12-20T01:45:27;99697.69;;;10.51;65.67
65553;BME280;72126;51.560;14.368;2023-12-20T01:47:54;99699.47;;;10.51;65.76
65553;BME280;72126;51.560;14.368;2023-12-20T01:50:20;99702.91;;;10.51;65.66
65553;BME280;72126;51.560;14.368;2023-12-20T01:52:46;99708.16;;;10.51;65.74
65553;BME280;72126;51.560;14.368;2023-12-20T01:55:11;99704.72;;;10.51;65.95
65553;BME280;72126;51.560;14.368;2023-12-20T01:57:36;99696.03;;;10.50;65.73
65553;BME280;72126;51.560;14.368;2023-12-20T02:00:02;99693.44;;;10.50;65.56
65553;BME280;72126;51.560;14.368;2023-12-20T02:02:28;99682.97;;;10.50;65.88
65553;BME280;72126;51.560;14.368;2023-12-20T02:04:54;99690.00;;;10.50;66.00
65553;BME280;72126;51.560;14.368;2023-12-20T02:07:20;99693.44;;;10.50;65.78
65553;BME280;72126;51.560;14.368;2023-12-20T02:09:46;99685.72;;;10.49;65.71
65553;BME280;72126;51.560;14.368;2023-12-20T02:12:11;99690.00;;;10.50;65.85
65553;BME280;72126;51.560;14.368;2023-12-20T02:14:36;99665.47;;;10.43;65.77
65553;BME280;72126;51.560;14.368;2023-12-20T02:17:01;99674.28;;;10.50;65.86
65553;BME280;72126;51.560;14.368;2023-12-20T02:19:26;99670.84;;;10.49;65.60
65553;BME280;72126;51.560;14.368;2023-12-20T02:22:05;99666.78;;;10.47;65.76
65553;BME280;72126;51.560;14.368;2023-12-20T02:24:30;99663.97;;;10.48;65.71
65553;BME280;72126;51.560;14.368;2023-12-20T02:26:55;99662.19;;;10.49;65.91
65553;BME280;72126;51.560;14.368;2023-12-20T02:29:21;99668.41;;;10.48;65.86
65553;BME280;72126;51.560;14.368;2023-12-20T02:31:46;99665.78;;;10.48;65.54
65553;BME280;72126;51.560;14.368;2023-12-20T02:34:11;99665.78;;;10.48;65.74
65553;BME280;72126;51.560;14.368;2023-12-20T02:36:36;99666.78;;;10.47;65.67
65553;BME280;72126;51.560;14.368;2023-12-20T02:39:01;99660.72;;;10.46;66.01
65553;BME280;72126;51.560;14.368;2023-12-20T02:41:27;99668.41;;;10.48;65.74
65553;BME280;72126;51.560;14.368;2023-12-20T02:43:52;99664.97;;;10.47;65.75
65553;BME280;72126;51.560;14.368;2023-12-20T02:46:18;99674.63;;;10.47;65.62
65553;BME280;72126;51.560;14.368;2023-12-20T02:48:45;99673.63;;;10.48;65.80
65553;BME280;72126;51.560;14.368;2023-12-20T02:51:11;99670.22;;;10.47;65.71
65553;BME280;72126;51.560;14.368;2023-12-20T02:53:36;99672.81;;;10.47;65.91
65553;BME280;72126;51.560;14.368;2023-12-20T02:56:01;99664.34;;;10.45;65.65
65553;BME280;72126;51.560;14.368;2023-12-20T02:58:26;99665.16;;;10.46;65.76
65553;BME280;72126;51.560;14.368;2023-12-20T03:00:54;99665.16;;;10.46;65.80
65553;BME280;72126;51.560;14.368;2023-12-20T03:03:19;99661.53;;;10.47;66.23
65553;BME280;72126;51.560;14.368;2023-12-20T03:05:45;99668.56;;;10.46;65.71
65553;BME280;72126;51.560;14.368;2023-12-20T03:08:10;99667.75;;;10.46;65.76
65553;BME280;72126;51.560;14.368;2023-12-20T03:10:35;99667.75;;;10.46;65.80
65553;BME280;72126;51.560;14.368;2023-12-20T03:13:00;99661.72;;;10.45;65.81
65553;BME280;72126;51.560;14.368;2023-12-20T03:15:25;99657.28;;;10.46;66.00
65553;BME280;72126;51.560;14.368;2023-12-20T03:17:51;99655.66;;;10.45;65.94
65553;BME280;72126;51.560;14.368;2023-12-20T03:20:16;99647.81;;;10.45;65.81
65553;BME280;72126;51.560;14.368;2023-12-20T03:22:41;99641.78;;;10.44;65.97
65553;BME280;72126;51.560;14.368;2023-12-20T03:25:06;99634.75;;;10.45;65.92
65553;BME280;72126;51.560;14.368;2023-12-20T03:27:32;99642.59;;;10.45;65.56
65553;BME280;72126;51.560;14.368;2023-12-20T03:29:57;99641.09;;;10.42;65.60
65553;BME280;72126;51.560;14.368;2023-12-20T03:32:22;99635.56;;;10.45;65.54
65553;BME280;72126;51.560;14.368;2023-12-20T03:34:47;99635.88;;;10.42;65.85
65553;BME280;72126;51.560;14.368;2023-12-20T03:37:12;99643.41;;;10.45;65.77
65553;BME280;72126;51.560;14.368;2023-12-20T03:39:38;99641.78;;;10.44;65.58
65553;BME280;72126;51.560;14.368;2023-12-20T03:42:03;99630.50;;;10.44;65.83
65553;BME280;72126;51.560;14.368;2023-12-20T03:44:28;99627.03;;;10.43;65.62
65553;BME280;72126;51.560;14.368;2023-12-20T03:46:54;99629.84;;;10.42;65.86
65553;BME280;72126;51.560;14.368;2023-12-20T03:49:19;99629.66;;;10.43;65.85
65553;BME280;72126;51.560;14.368;2023-12-20T03:51:44;99628.69;;;10.44;66.11
65553;BME280;72126;51.560;14.368;2023-12-20T03:54:09;99640.13;;;10.43;65.96
65553;BME280;72126;51.560;14.368;2023-12-20T03:56:34;99629.66;;;10.43;65.85
65553;BME280;72126;51.560;14.368;2023-12-20T03:58:59;99634.06;;;10.43;65.87
65553;BME280;72126;51.560;14.368;2023-12-20T04:01:25;99633.25;;;10.42;65.94
65553;BME280;72126;51.560;14.368;2023-12-20T04:03:50;99639.31;;;10.43;65.77
65553;BME280;72126;51.560;14.368;2023-12-20T04:06:17;99627.22;;;10.42;65.83
65553;BME280;72126;51.560;14.368;2023-12-20T04:08:42;99631.47;;;10.43;65.92
65553;BME280;72126;51.560;14.368;2023-12-20T04:11:08;99626.22;;;10.43;66.30
65553;BME280;72126;51.560;14.368;2023-12-20T04:13:33;99642.09;;;10.41;65.88
65553;BME280;72126;51.560;14.368;2023-12-20T04:15:58;99640.31;;;10.42;65.83
65553;BME280;72126;51.560;14.368;2023-12-20T04:18:23;99637.69;;;10.42;65.85
65553;BME280;72126;51.560;14.368;2023-12-20T04:20:48;99628.03;;;10.42;65.80
65553;BME280;72126;51.560;14.368;2023-12-20T04:23:14;99635.06;;;10.42;65.88
65553;BME280;72126;51.560;14.368;2023-12-20T04:25:39;99628.22;;;10.41;65.71
65553;BME280;72126;51.560;14.368;2023-12-20T04:28:04;99627.22;;;10.42;66.11
65553;BME280;72126;51.560;14.368;2023-12-20T04:30:29;99621.97;;;10.42;65.81
65553;BME280;72126;51.560;14.368;2023-12-20T04:32:54;99625.59;;;10.41;65.70
65553;BME280;72126;51.560;14.368;2023-12-20T04:35:20;99639.47;;;10.41;65.91
65553;BME280;72126;51.560;14.368;2023-12-20T04:37:45;99640.47;;;10.40;66.08
65553;BME280;72126;51.560;14.368;2023-12-20T04:40:10;99629.19;;;10.40;65.68
65553;BME280;72126;51.560;14.368;2023-12-20T04:42:35;99624.78;;;10.40;66.13
65553;BME280;72126;51.560;14.368;2023-12-20T04:45:00;99621.69;;;10.37;65.78
65553;BME280;72126;51.560;14.368;2023-12-20T04:47:25;99631.81;;;10.40;66.07
65553;BME280;72126;51.560;14.368;2023-12-20T04:49:51;99634.44;;;10.40;65.97
65553;BME280;72126;51.560;14.368;2023-12-20T04:52:16;99637.84;;;10.40;65.81
65553;BME280;72126;51.560;14.368;2023-12-20T04:54:41;99638.69;;;10.41;65.90
65553;BME280;72126;51.560;14.368;2023-12-20T04:57:09;99637.06;;;10.40;65.90
65553;BME280;72126;51.560;14.368;2023-12-20T04:59:34;99624.78;;;10.40;66.04
65553;BME280;72126;51.560;14.368;2023-12-20T05:02:00;99636.06;;;10.41;65.84
65553;BME280;72126;51.560;14.368;2023-12-20T05:04:25;99640.66;;;10.39;66.13
65553;BME280;72126;51.560;14.368;2023-12-20T05:06:50;99640.66;;;10.39;65.94
65553;BME280;72126;51.560;14.368;2023-12-20T05:09:15;99644.09;;;10.39;65.90
65553;BME280;72126;51.560;14.368;2023-12-20T05:11:40;99638.03;;;10.39;66.02
65553;BME280;72126;51.560;14.368;2023-12-20T05:14:06;99643.28;;;10.39;65.97
65553;BME280;72126;51.560;14.368;2023-12-20T05:16:31;99650.31;;;10.38;66.08
65553;BME280;72126;51.560;14.368;2023-12-20T05:18:56;99663.22;;;10.40;65.96
65553;BME280;72126;51.560;14.368;2023-12-20T05:21:21;99657.31;;;10.38;65.85
65553;BME280;72126;51.560;14.368;2023-12-20T05:23:46;99655.53;;;10.38;66.02
65553;BME280;72126;51.560;14.368;2023-12-20T05:26:11;99651.28;;;10.37;65.91
65553;BME280;72126;51.560;14.368;2023-12-20T05:28:37;99653.75;;;10.39;65.97
65553;BME280;72126;51.560;14.368;2023-12-20T05:31:02;99651.28;;;10.37;65.77
65553;BME280;72126;51.560;14.368;2023-12-20T05:33:27;99650.31;;;10.38;66.07
65553;BME280;72126;51.560;14.368;2023-12-20T05:35:52;99659.78;;;10.39;66.07
65553;BME280;72126;51.560;14.368;2023-12-20T05:38:17;99653.06;;;10.37;66.20
65553;BME280;72126;51.560;14.368;2023-12-20T05:40:43;99652.09;;;10.38;66.03
65553;BME280;72126;51.560;14.368;2023-12-20T05:43:08;99654.69;;;10.38;66.31
65553;BME280;72126;51.560;14.368;2023-12-20T05:45:33;99660.94;;;10.37;66.00
65553;BME280;72126;51.560;14.368;2023-12-20T05:47:58;99656.50;;;10.37;65.93
65553;BME280;72126;51.560;14.368;2023-12-20T05:50:23;99645.41;;;10.35;66.01
65553;BME280;72126;51.560;14.368;2023-12-20T05:52:49;99645.22;;;10.37;65.85
65553;BME280;72126;51.560;14.368;2023-12-20T05:55:14;99650.47;;;10.37;65.77
65553;BME280;72126;51.560;14.368;2023-12-20T05:57:39;99656.69;;;10.36;65.69
65553;BME280;72126;51.560;14.368;2023-12-20T06:00:05;99659.28;;;10.36;66.13
65553;BME280;72126;51.560;14.368;2023-12-20T06:02:30;99660.09;;;10.36;65.91
65553;BME280;72126;51.560;14.368;2023-12-20T06:04:55;99662.72;;;10.36;66.13
65553;BME280;72126;51.560;14.368;2023-12-20T06:07:20;99655.88;;;10.35;65.88
65553;BME280;72126;51.560;14.368;2023-12-20T06:09:46;99664.53;;;10.36;65.93
65553;BME280;72126;51.560;14.368;2023-12-20T06:12:11;99668.13;;;10.35;66.02
65553;BME280;72126;51.560;14.368;2023-12-20T06:14:36;99661.91;;;10.36;66.04
65553;BME280;72126;51.560;14.368;2023-12-20T06:17:01;99669.59;;;10.37;65.88
65553;BME280;72126;51.560;14.368;2023-12-20T06:19:27;99670.56;;;10.36;65.94
65553;BME280;72126;51.560;14.368;2023-12-20T06:21:52;99669.75;;;10.36;65.99
65553;BME280;72126;51.560;14.368;2023-12-20T06:24:17;99667.16;;;10.36;65.95
65553;BME280;72126;51.560;14.368;2023-12-20T06:26:43;99663.72;;;10.35;65.92
65553;BME280;72126;51.560;14.368;2023-12-20T06:29:08;99668.13;;;10.35;65.95
65553;BME280;72126;51.560;14.368;2023-12-20T06:31:33;99668.13;;;10.35;66.06
65553;BME280;72126;51.560;14.368;2023-12-20T06:33:58;99680.22;;;10.36;66.02
65553;BME280;72126;51.560;14.368;2023-12-20T06:36:24;99674.38;;;10.33;66.19
65553;BME280;72126;51.560;14.368;2023-12-20T06:38:49;99674.38;;;10.33;65.83
65553;BME280;72126;51.560;14.368;2023-12-20T06:41:15;99683.84;;;10.35;66.10
65553;BME280;72126;51.560;14.368;2023-12-20T06:43:40;99685.63;;;10.34;65.73
65553;BME280;72126;51.560;14.368;2023-12-20T06:46:06;99696.09;;;10.34;66.04
65553;BME280;72126;51.560;14.368;2023-12-20T06:48:31;99690.88;;;10.34;66.14
65553;BME280;72126;51.560;14.368;2023-12-20T06:50:56;99683.84;;;10.35;66.12
65553;BME280;72126;51.560;14.368;2023-12-20T06:53:22;99680.59;;;10.32;66.15
65553;BME280;72126;51.560;14.368;2023-12-20T06:55:48;99689.25;;;10.33;65.88
65553;BME280;72126;51.560;14.368;2023-12-20T06:58:13;99687.44;;;10.33;66.20
65553;BME280;72126;51.560;14.368;2023-12-20T07:00:38;99690.88;;;10.34;66.19
65553;BME280;72126;51.560;14.368;2023-12-20T07:03:03;99692.69;;;10.33;66.04
65553;BME280;72126;51.560;14.368;2023-12-20T07:05:28;99686.63;;;10.33;65.84
65553;BME280;72126;51.560;14.368;2023-12-20T07:07:54;99699.72;;;10.33;66.07
65553;BME280;72126;51.560;14.368;2023-12-20T07:10:19;99690.06;;;10.33;66.13
65553;BME280;72126;51.560;14.368;2023-12-20T07:12:44;99703.13;;;10.33;66.08
65553;BME280;72126;51.560;14.368;2023-12-20T07:15:13;99703.28;;;10.32;66.17
65553;BME280;72126;51.560;14.368;2023-12-20T07:17:38;99703.28;;;10.32;66.60
65553;BME280;72126;51.560;14.368;2023-12-20T07:20:04;99711.97;;;10.32;65.82
65553;BME280;72126;51.560;14.368;2023-12-20T07:22:30;99714.59;;;10.32;66.07
65553;BME280;72126;51.560;14.368;2023-12-20T07:24:55;99720.66;;;10.33;66.01
65553;BME280;72126;51.560;14.368;2023-12-20T07:27:20;99706.25;;;10.29;66.22
65553;BME280;72126;51.560;14.368;2023-12-20T07:29:45;99717.22;;;10.32;65.88
65553;BME280;72126;51.560;14.368;2023-12-20T07:32:11;99719.84;;;10.32;66.14
65553;BME280;72126;51.560;14.368;2023-12-20T07:34:36;99722.44;;;10.32;65.89
65553;BME280;72126;51.560;14.368;2023-12-20T07:37:01;99717.34;;;10.31;65.90
65553;BME280;72126;51.560;14.368;2023-12-20T07:39:26;99715.56;;;10.31;66.09
65553;BME280;72126;51.560;14.368;2023-12-20T07:41:51;99712.94;;;10.31;66.01
65553;BME280;72126;51.560;14.368;2023-12-20T07:44:16;99716.38;;;10.32;66.05
65553;BME280;72126;51.560;14.368;2023-12-20T07:46:42;99715.72;;;10.30;66.47
65553;BME280;72126;51.560;14.368;2023-12-20T07:49:07;99715.72;;;10.30;66.27
65553;BME280;72126;51.560;14.368;2023-12-20T07:51:32;99713.94;;;10.30;66.15
65553;BME280;72126;51.560;14.368;2023-12-20T07:53:57;99717.34;;;10.31;65.85
65553;BME280;72126;51.560;14.368;2023-12-20T07:56:22;99705.28;;;10.30;66.03
65553;BME280;72126;51.560;14.368;2023-12-20T07:58:48;99702.66;;;10.30;65.95
65553;BME280;72126;51.560;14.368;2023-12-20T08:01:13;99713.13;;;10.30;66.05
65553;BME280;72126;51.560;14.368;2023-12-20T08:03:38;99699.22;;;10.29;66.21
65553;BME280;72126;51.560;14.368;2023-12-20T08:06:04;99704.44;;;10.29;65.84
65553;BME280;72126;51.560;14.368;2023-12-20T08:08:29;99706.91;;;10.31;65.80
65553;BME280;72126;51.560;14.368;2023-12-20T08:10:54;99709.69;;;10.29;66.03
65553;BME280;72126;51.560;14.368;2023-12-20T08:13:20;99700.22;;;10.28;65.77
65553;BME280;72126;51.560;14.368;2023-12-20T08:15:45;99699.22;;;10.29;65.88
65553;BME280;72126;51.560;14.368;2023-12-20T08:18:10;99701.84;;;10.29;66.04
65553;BME280;72126;51.560;14.368;2023-12-20T08:20:35;99699.22;;;10.29;65.98
65553;BME280;72126;51.560;14.368;2023-12-20T08:23:01;99697.41;;;10.30;65.99
65553;BME280;72126;51.560;14.368;2023-12-20T08:25:26;99702.81;;;10.28;65.96
65553;BME280;72126;51.560;14.368;2023-12-20T08:27:51;99707.06;;;10.29;66.00
65553;BME280;72126;51.560;14.368;2023-12-20T08:30:16;99707.06;;;10.29;65.91
65553;BME280;72126;51.560;14.368;2023-12-20T08:32:41;99707.06;;;10.29;66.08
65553;BME280;72126;51.560;14.368;2023-12-20T08:35:07;99712.31;;;10.29;65.81
65553;BME280;72126;51.560;14.368;2023-12-20T08:37:32;99707.06;;;10.29;65.87
65553;BME280;72126;51.560;14.368;2023-12-20T08:39:57;99707.06;;;10.29;66.15
65553;BME280;72126;51.560;14.368;2023-12-20T08:42:22;99707.88;;;10.30;66.00
65553;BME280;72126;51.560;14.368;2023-12-20T08:44:47;99700.03;;;10.30;65.87
65553;BME280;72126;51.560;14.368;2023-12-20T08:47:12;99697.41;;;10.30;65.86
65553;BME280;72126;51.560;14.368;2023-12-20T08:49:38;99690.56;;;10.29;66.09
65553;BME280;72126;51.560;14.368;2023-12-20T08:52:06;99689.75;;;10.28;66.04
65553;BME280;72126;51.560;14.368;2023-12-20T08:54:31;99697.41;;;10.30;65.95
65553;BME280;72126;51.560;14.368;2023-12-20T08:56:56;99701.03;;;10.29;66.04
65553;BME280;72126;51.560;14.368;2023-12-20T08:59:22;99707.06;;;10.29;65.94
65553;BME280;72126;51.560;14.368;2023-12-20T09:01:47;99702.81;;;10.28;66.08
65553;BME280;72126;51.560;14.368;2023-12-20T09:04:12;99700.22;;;10.28;66.11
65553;BME280;72126;51.560;14.368;2023-12-20T09:06:37;99705.28;;;10.30;66.15
65553;BME280;72126;51.560;14.368;2023-12-20T09:09:02;99701.03;;;10.29;66.38
65553;BME280;72126;51.560;14.368;2023-12-20T09:11:28;99693.19;;;10.29;66.03
65553;BME280;72126;51.560;14.368;2023-12-20T09:13:53;99693.19;;;10.29;65.99
65553;BME280;72126;51.560;14.368;2023-12-20T09:16:18;99691.38;;;10.29;65.95
65553;BME280;72126;51.560;14.368;2023-12-20T09:18:43;99688.75;;;10.29;65.99
65553;BME280;72126;51.560;14.368;2023-12-20T09:21:08;99680.09;;;10.29;66.29
65553;BME280;72126;51.560;14.368;2023-12-20T09:23:33;99687.13;;;10.28;65.94
65553;BME280;72126;51.560;14.368;2023-12-20T09:25:59;99692.38;;;10.28;66.04
65553;BME280;72126;51.560;14.368;2023-12-20T09:28:24;99694.97;;;10.28;65.85
65553;BME280;72126;51.560;14.368;2023-12-20T09:30:49;99688.94;;;10.28;65.75
65553;BME280;72126;51.560;14.368;2023-12-20T09:33:14;99694.00;;;10.29;66.29
65553;BME280;72126;51.560;14.368;2023-12-20T09:35:40;99691.38;;;10.29;65.65
65553;BME280;72126;51.560;14.368;2023-12-20T09:38:05;99694.97;;;10.28;66.00
65553;BME280;72126;51.560;14.368;2023-12-20T09:40:32;99698.41;;;10.29;65.70
65553;BME280;72126;51.560;14.368;2023-12-20T09:42:58;99697.59;;;10.28;65.72
65553;BME280;72126;51.560;14.368;2023-12-20T09:45:27;99688.75;;;10.29;65.75
65553;BME280;72126;51.560;14.368;2023-12-20T09:47:53;99679.09;;;10.30;65.79
65553;BME280;72126;51.560;14.368;2023-12-20T09:50:20;99680.91;;;10.29;66.11
65553;BME280;72126;51.560;14.368;2023-12-20T09:52:51;99676.50;;;10.30;66.04
65553;BME280;72126;51.560;14.368;2023-12-20T09:55:17;99662.59;;;10.29;65.88
65553;BME280;72126;51.560;14.368;2023-12-20T09:57:43;99664.22;;;10.30;65.71
65553;BME280;72126;51.560;14.368;2023-12-20T10:00:08;99663.41;;;10.30;65.90
65553;BME280;72126;51.560;14.368;2023-12-20T10:02:34;99660.78;;;10.30;66.16
65553;BME280;72126;51.560;14.368;2023-12-20T10:05:01;99656.56;;;10.29;65.79
65553;BME280;72126;51.560;14.368;2023-12-20T10:07:27;99655.38;;;10.31;65.88
65553;BME280;72126;51.560;14.368;2023-12-20T10:09:54;99651.13;;;10.30;65.74
65553;BME280;72126;51.560;14.368;2023-12-20T10:12:19;99653.94;;;10.29;66.03
65553;BME280;72126;51.560;14.368;2023-12-20T10:14:44;99656.38;;;10.30;66.06
65553;BME280;72126;51.560;14.368;2023-12-20T10:17:10;99652.75;;;10.31;65.64
65553;BME280;72126;51.560;14.368;2023-12-20T10:19:37;99656.38;;;10.30;65.91
65553;BME280;72126;51.560;14.368;2023-12-20T10:22:04;99656.38;;;10.30;65.99
65553;BME280;72126;51.560;14.368;2023-12-20T10:24:29;99651.13;;;10.30;65.94
65553;BME280;72126;51.560;14.368;2023-12-20T10:27:04;99645.91;;;10.30;66.18
65553;BME280;72126;51.560;14.368;2023-12-20T10:29:34;99652.75;;;10.31;65.76
65553;BME280;72126;51.560;14.368;2023-12-20T10:32:00;99650.97;;;10.32;66.06
65553;BME280;72126;51.560;14.368;2023-12-20T10:34:35;99641.34;;;10.32;65.61
65553;BME280;72126;51.560;14.368;2023-12-20T10:37:00;99638.06;;;10.30;66.12
65553;BME280;72126;51.560;14.368;2023-12-20T10:39:25;99632.66;;;10.32;66.01
65553;BME280;72126;51.560;14.368;2023-12-20T10:41:51;99626.78;;;10.30;65.96
65553;BME280;72126;51.560;14.368;2023-12-20T10:44:16;99622.19;;;10.32;66.14
65553;BME280;72126;51.560;14.368;2023-12-20T10:46:41;99627.41;;;10.32;65.69
65553;BME280;72126;51.560;14.368;2023-12-20T10:49:07;99630.22;;;10.30;65.66
65553;BME280;72126;51.560;14.368;2023-12-20T10:51:33;99611.72;;;10.32;65.60
65553;BME280;72126;51.560;14.368;2023-12-20T10:53:59;99616.13;;;10.31;65.99
65553;BME280;72126;51.560;14.368;2023-12-20T10:56:25;99629.22;;;10.31;65.96
65553;BME280;72126;51.560;14.368;2023-12-20T10:58:54;99623.03;;;10.32;65.83
65553;BME280;72126;51.560;14.368;2023-12-20T11:01:21;99627.09;;;10.35;65.88
65553;BME280;72126;51.560;14.368;2023-12-20T11:03:50;99628.88;;;10.35;65.98
65553;BME280;72126;51.560;14.368;2023-12-20T11:06:27;99609.09;;;10.32;65.98
65553;BME280;72126;51.560;14.368;2023-12-20T11:09:14;99615.19;;;10.32;65.72
65553;BME280;72126;51.560;14.368;2023-12-20T11:14:31;99603.88;;;10.32;65.51
65553;BME280;72126;51.560;14.368;2023-12-20T11:17:09;99609.94;;;10.32;65.78
65553;BME280;72126;51.560;14.368;2023-12-20T11:20:03;99601.25;;;10.32;65.60
65553;BME280;72126;51.560;14.368;2023-12-20T11:22:32;99595.22;;;10.31;66.06
65553;BME280;72126;51.560;14.368;2023-12-20T11:25:05;99585.72;;;10.30;65.92
65553;BME280;72126;51.560;14.368;2023-12-20T11:27:31;99586.41;;;10.32;66.04
65553;BME280;72126;51.560;14.368;2023-12-20T11:29:57;99584.75;;;10.31;65.55
65553;BME280;72126;51.560;14.368;2023-12-20T11:34:51;99581.16;;;10.32;65.82
65553;BME280;72126;51.560;14.368;2023-12-20T11:37:19;99581.16;;;10.32;65.81
65553;BME280;72126;51.560;14.368;2023-12-20T11:39:44;99579.38;;;10.33;65.69
65553;BME280;72126;51.560;14.368;2023-12-20T11:42:10;99564.47;;;10.33;65.73
65553;BME280;72126;51.560;14.368;2023-12-20T11:44:36;99558.25;;;10.35;65.67
65553;BME280;72126;51.560;14.368;2023-12-20T11:47:02;99561.69;;;10.35;65.80
65553;BME280;72126;51.560;14.368;2023-12-20T11:49:27;99555.47;;;10.36;65.78
65553;BME280;72126;51.560;14.368;2023-12-20T11:51:52;99541.56;;;10.36;65.49
65553;BME280;72126;51.560;14.368;2023-12-20T11:54:18;99547.59;;;10.36;65.54
65553;BME280;72126;51.560;14.368;2023-12-20T11:56:43;99538.13;;;10.35;65.76
65553;BME280;72126;51.560;14.368;2023-12-20T11:59:08;99532.09;;;10.35;65.81
65553;BME280;72126;51.560;14.368;2023-12-20T12:01:34;99538.94;;;10.36;65.72
65553;BME280;72126;51.560;14.368;2023-12-20T12:04:03;99545.81;;;10.37;65.64
65553;BME280;72126;51.560;14.368;2023-12-20T12:06:29;99539.75;;;10.36;65.55
65553;BME280;72126;51.560;14.368;2023-12-20T12:08:54;99529.28;;;10.36;65.78
65553;BME280;72126;51.560;14.368;2023-12-20T12:11:19;99526.84;;;10.35;65.70
65553;BME280;72126;51.560;14.368;2023-12-20T12:13:44;99533.72;;;10.36;65.75
65553;BME280;72126;51.560;14.368;2023-12-20T12:16:10;99523.25;;;10.36;65.71
65553;BME280;72126;51.560;14.368;2023-12-20T12:18:35;99506.56;;;10.37;65.85
65553;BME280;72126;51.560;14.368;2023-12-20T12:21:01;99512.78;;;10.36;65.74
65553;BME280;72126;51.560;14.368;2023-12-20T12:23:26;99499.69;;;10.36;65.74
65553;BME280;72126;51.560;14.368;2023-12-20T12:25:51;99504.13;;;10.35;65.75
65553;BME280;72126;51.560;14.368;2023-12-20T12:28:16;99499.69;;;10.36;66.08
65553;BME280;72126;51.560;14.368;2023-12-20T12:30:41;99518.00;;;10.36;65.79
65553;BME280;72126;51.560;14.368;2023-12-20T12:33:07;99498.88;;;10.35;66.20
65553;BME280;72126;51.560;14.368;2023-12-20T12:35:32;99496.28;;;10.35;65.84
65553;BME280;72126;51.560;14.368;2023-12-20T12:37:58;99497.09;;;10.36;65.91
65553;BME280;72126;51.560;14.368;2023-12-20T12:40:24;99491.03;;;10.35;65.68
65553;BME280;72126;51.560;14.368;2023-12-20T12:42:49;99491.84;;;10.36;65.78
65553;BME280;72126;51.560;14.368;2023-12-20T12:45:14;99485.81;;;10.35;65.68
65553;BME280;72126;51.560;14.368;2023-12-20T12:47:39;99485.00;;;10.35;66.02